sensor_id;sensor_type;location;lat;lon;timestamp;pressure;altitude;pressure_sealevel;temperature;humidity
33949;BME280;20229;49.856;19.030;2023-03-26T00:02:55;100704.66;;;8.59;71.38
33949;BME280;20229;49.856;19.030;2023-03-26T00:08:10;100699.86;;;8.65;71.92
33949;BME280;20229;49.856;19.030;2023-03-26T00:13:24;100690.67;;;8.67;70.93
33949;BME280;20229;49.856;19.030;2023-03-26T00:18:38;100685.97;;;8.71;71.36
33949;BME280;20229;49.856;19.030;2023-03-26T00:23:59;100688.69;;;8.71;71.66
33949;BME280;20229;49.856;19.030;2023-03-26T00:29:18;100667.87;;;8.70;71.37
33949;BME280;20229;49.856;19.030;2023-03-26T00:34:31;100665.95;;;8.72;71.49
33949;BME280;20229;49.856;19.030;2023-03-26T00:39:47;100664.04;;;8.74;71.74
33949;BME280;20229;49.856;19.030;2023-03-26T00:45:02;100672.13;;;8.75;71.47
33949;BME280;20229;49.856;19.030;2023-03-26T00:50:15;100662.10;;;8.76;71.18
33949;BME280;20229;49.856;19.030;2023-03-26T00:55:29;100659.57;;;8.73;71.40
33949;BME280;20229;49.856;19.030;2023-03-26T01:00:52;100659.47;;;8.74;70.95
33949;BME280;20229;49.856;19.030;2023-03-26T01:06:21;100648.59;;;8.74;70.82
33949;BME280;20229;49.856;19.030;2023-03-26T01:11:32;100643.15;;;8.74;70.69
33949;BME280;20229;49.856;19.030;2023-03-26T01:16:58;100632.16;;;8.76;70.83
33949;BME280;20229;49.856;19.030;2023-03-26T01:22:15;100622.10;;;8.78;70.83
33949;BME280;20229;49.856;19.030;2023-03-26T01:27:37;100633.38;;;8.70;70.62
33949;BME280;20229;49.856;19.030;2023-03-26T01:44:35;100640.66;;;8.51;71.13
33949;BME280;20229;49.856;19.030;2023-03-26T01:49:49;100627.65;;;8.57;70.76
33949;BME280;20229;49.856;19.030;2023-03-26T01:55:04;100621.42;;;8.55;71.17
33949;BME280;20229;49.856;19.030;2023-03-26T02:00:28;100622.88;;;8.63;70.86
33949;BME280;20229;49.856;19.030;2023-03-26T02:05:51;100608.46;;;8.60;70.72
33949;BME280;20229;49.856;19.030;2023-03-26T02:11:11;100603.46;;;8.51;70.42
33949;BME280;20229;49.856;19.030;2023-03-26T02:16:27;100615.08;;;8.36;71.03
33949;BME280;20229;49.856;19.030;2023-03-26T02:21:40;100612.59;;;8.31;70.87
33949;BME280;20229;49.856;19.030;2023-03-26T02:26:54;100610.98;;;8.27;71.19
33949;BME280;20229;49.856;19.030;2023-03-26T02:32:14;100613.84;;;8.24;71.12
33949;BME280;20229;49.856;19.030;2023-03-26T02:37:29;100612.14;;;8.22;71.29
33949;BME280;20229;49.856;19.030;2023-03-26T02:42:46;100604.95;;;8.21;71.22
33949;BME280;20229;49.856;19.030;2023-03-26T02:48:00;100604.95;;;8.21;71.05
33949;BME280;20229;49.856;19.030;2023-03-26T02:53:15;100610.59;;;8.35;70.94
33949;BME280;20229;49.856;19.030;2023-03-26T02:58:35;100593.92;;;8.43;70.70
33949;BME280;20229;49.856;19.030;2023-03-26T03:03:49;100601.70;;;8.50;70.24
33949;BME280;20229;49.856;19.030;2023-03-26T03:09:04;100590.52;;;8.56;70.35
33949;BME280;20229;49.856;19.030;2023-03-26T03:14:24;100597.42;;;8.64;70.42
33949;BME280;20229;49.856;19.030;2023-03-26T03:19:37;100593.59;;;8.68;69.76
33949;BME280;20229;49.856;19.030;2023-03-26T03:24:51;100597.91;;;8.72;69.80
33949;BME280;20229;49.856;19.030;2023-03-26T03:30:06;100594.01;;;8.77;70.20
33949;BME280;20229;49.856;19.030;2023-03-26T03:35:21;100590.26;;;8.80;69.75
33949;BME280;20229;49.856;19.030;2023-03-26T03:40:36;100590.62;;;8.72;69.96
33949;BME280;20229;49.856;19.030;2023-03-26T03:45:56;100593.28;;;8.74;69.75
33949;BME280;20229;49.856;19.030;2023-03-26T03:51:10;100593.28;;;8.74;70.01
33949;BME280;20229;49.856;19.030;2023-03-26T03:56:24;100584.97;;;8.77;69.75
33949;BME280;20229;49.856;19.030;2023-03-26T04:01:38;100603.77;;;8.81;69.29
33949;BME280;20229;49.856;19.030;2023-03-26T04:06:58;100598.02;;;8.88;69.19
33949;BME280;20229;49.856;19.030;2023-03-26T04:12:13;100583.36;;;8.90;68.94
33949;BME280;20229;49.856;19.030;2023-03-26T04:17:27;100580.56;;;8.92;68.89
33949;BME280;20229;49.856;19.030;2023-03-26T04:22:48;100576.10;;;8.91;68.83
33949;BME280;20229;49.856;19.030;2023-03-26T04:28:05;100581.45;;;8.92;69.08
33949;BME280;20229;49.856;19.030;2023-03-26T04:33:20;100585.86;;;8.95;68.88
33949;BME280;20229;49.856;19.030;2023-03-26T04:43:59;100584.65;;;9.00;69.10
33949;BME280;20229;49.856;19.030;2023-03-26T04:49:14;100580.89;;;9.03;68.61
33949;BME280;20229;49.856;19.030;2023-03-26T04:54:28;100599.07;;;9.02;68.93
33949;BME280;20229;49.856;19.030;2023-03-26T04:59:42;100593.63;;;9.02;69.06
33949;BME280;20229;49.856;19.030;2023-03-26T05:04:56;100595.47;;;9.02;68.48
33949;BME280;20229;49.856;19.030;2023-03-26T05:10:16;100599.07;;;9.02;68.71
33949;BME280;20229;49.856;19.030;2023-03-26T05:15:29;100600.66;;;9.06;68.47
33949;BME280;20229;49.856;19.030;2023-03-26T05:20:43;100607.80;;;9.09;68.62
33949;BME280;20229;49.856;19.030;2023-03-26T05:25:58;100598.27;;;9.18;67.94
33949;BME280;20229;49.856;19.030;2023-03-26T05:31:12;100604.57;;;9.36;68.18
33949;BME280;20229;49.856;19.030;2023-03-26T05:36:35;100610.41;;;9.63;66.72
33949;BME280;20229;49.856;19.030;2023-03-26T05:41:49;100602.95;;;9.66;66.10
33949;BME280;20229;49.856;19.030;2023-03-26T05:47:11;100605.12;;;9.60;66.49
33949;BME280;20229;49.856;19.030;2023-03-26T05:52:25;100608.98;;;9.55;66.47
33949;BME280;20229;49.856;19.030;2023-03-26T05:57:39;100608.98;;;9.55;66.66
33949;BME280;20229;49.856;19.030;2023-03-26T06:02:55;100616.84;;;9.62;66.25
33949;BME280;20229;49.856;19.030;2023-03-26T06:08:10;100611.99;;;9.67;67.00
33949;BME280;20229;49.856;19.030;2023-03-26T06:13:24;100616.60;;;9.82;66.93
33949;BME280;20229;49.856;19.030;2023-03-26T06:18:38;100616.91;;;9.93;66.04
33949;BME280;20229;49.856;19.030;2023-03-26T06:23:53;100622.55;;;10.06;66.09
33949;BME280;20229;49.856;19.030;2023-03-26T06:29:08;100628.82;;;10.24;65.59
33949;BME280;20229;49.856;19.030;2023-03-26T06:34:22;100625.88;;;10.44;64.82
33949;BME280;20229;49.856;19.030;2023-03-26T06:39:36;100622.11;;;10.47;63.95
33949;BME280;20229;49.856;19.030;2023-03-26T06:44:50;100628.02;;;10.39;64.35
33949;BME280;20229;49.856;19.030;2023-03-26T06:50:07;100636.37;;;10.36;64.24
33949;BME280;20229;49.856;19.030;2023-03-26T06:55:23;100627.64;;;10.45;64.57
33949;BME280;20229;49.856;19.030;2023-03-26T07:00:37;100614.98;;;10.60;63.46
33949;BME280;20229;49.856;19.030;2023-03-26T07:05:50;100618.72;;;10.89;63.67
33949;BME280;20229;49.856;19.030;2023-03-26T07:11:11;100621.20;;;11.24;62.97
33949;BME280;20229;49.856;19.030;2023-03-26T07:16:59;100610.34;;;11.67;61.69
33949;BME280;20229;49.856;19.030;2023-03-26T07:22:19;100601.51;;;12.62;59.87
33949;BME280;20229;49.856;19.030;2023-03-26T07:27:43;100610.98;;;13.37;57.66
33949;BME280;20229;49.856;19.030;2023-03-26T07:33:03;100614.49;;;14.29;55.51
33949;BME280;20229;49.856;19.030;2023-03-26T07:49:14;100598.85;;;18.53;44.86
33949;BME280;20229;49.856;19.030;2023-03-26T07:54:33;100590.27;;;19.55;41.99
33949;BME280;20229;49.856;19.030;2023-03-26T07:59:53;100585.63;;;22.71;38.16
33949;BME280;20229;49.856;19.030;2023-03-26T08:05:35;100587.36;;;26.22;34.78
33949;BME280;20229;49.856;19.030;2023-03-26T08:16:41;100593.70;;;20.43;36.98
33949;BME280;20229;49.856;19.030;2023-03-26T08:22:04;100580.24;;;21.57;37.32
33949;BME280;20229;49.856;19.030;2023-03-26T08:32:56;100570.67;;;19.95;39.52
33949;BME280;20229;49.856;19.030;2023-03-26T08:38:13;100568.15;;;19.26;40.80
33949;BME280;20229;49.856;19.030;2023-03-26T08:49:06;100564.25;;;18.69;43.74
33949;BME280;20229;49.856;19.030;2023-03-26T08:54:57;100563.95;;;18.62;43.10
33949;BME280;20229;49.856;19.030;2023-03-26T09:37:27;100550.13;;;17.60;44.74
33949;BME280;20229;49.856;19.030;2023-03-26T10:10:03;100507.21;;;18.48;42.48
33949;BME280;20229;49.856;19.030;2023-03-26T10:15:56;100515.59;;;18.37;41.78
33949;BME280;20229;49.856;19.030;2023-03-26T10:37:43;100496.33;;;17.13;43.45
33949;BME280;20229;49.856;19.030;2023-03-26T10:59:47;100472.53;;;17.33;42.03
33949;BME280;20229;49.856;19.030;2023-03-26T11:21:32;100461.95;;;17.38;42.76
33949;BME280;20229;49.856;19.030;2023-03-26T11:26:53;100449.91;;;17.39;43.01
33949;BME280;20229;49.856;19.030;2023-03-26T11:32:16;100454.70;;;17.37;42.60
33949;BME280;20229;49.856;19.030;2023-03-26T11:37:40;100456.06;;;17.22;43.15
33949;BME280;20229;49.856;19.030;2023-03-26T11:43:01;100460.12;;;17.48;42.92
33949;BME280;20229;49.856;19.030;2023-03-26T11:48:27;100459.00;;;17.30;42.32
33949;BME280;20229;49.856;19.030;2023-03-26T11:54:11;100439.77;;;17.18;42.77
33949;BME280;20229;49.856;19.030;2023-03-26T11:59:28;100431.01;;;17.13;42.83
33949;BME280;20229;49.856;19.030;2023-03-26T12:04:50;100425.09;;;17.39;42.09
33949;BME280;20229;49.856;19.030;2023-03-26T12:15:41;100415.03;;;17.07;42.30
33949;BME280;20229;49.856;19.030;2023-03-26T12:21:02;100409.52;;;17.07;42.29
33949;BME280;20229;49.856;19.030;2023-03-26T12:26:19;100394.18;;;17.14;42.55
33949;BME280;20229;49.856;19.030;2023-03-26T12:31:41;100393.98;;;17.37;42.16
33949;BME280;20229;49.856;19.030;2023-03-26T12:36:58;100357.77;;;17.61;40.81
33949;BME280;20229;49.856;19.030;2023-03-26T12:47:41;100355.16;;;18.09;40.51
33949;BME280;20229;49.856;19.030;2023-03-26T12:53:06;100349.63;;;18.19;38.90
33949;BME280;20229;49.856;19.030;2023-03-26T13:04:26;100357.77;;;17.61;38.81
33949;BME280;20229;49.856;19.030;2023-03-26T13:10:11;100331.35;;;17.68;39.98
33949;BME280;20229;49.856;19.030;2023-03-26T13:15:23;100321.55;;;17.85;39.66
33949;BME280;20229;49.856;19.030;2023-03-26T13:26:13;100300.24;;;17.56;39.90
33949;BME280;20229;49.856;19.030;2023-03-26T13:37:12;100303.87;;;17.16;40.06
33949;BME280;20229;49.856;19.030;2023-03-26T13:43:50;100296.51;;;16.96;40.14
33949;BME280;20229;49.856;19.030;2023-03-26T13:48:26;100295.97;;;17.02;40.27
33949;BME280;20229;49.856;19.030;2023-03-26T13:53:46;100287.32;;;17.16;39.78
33949;BME280;20229;49.856;19.030;2023-03-26T13:59:10;100289.91;;;17.08;39.54
33949;BME280;20229;49.856;19.030;2023-03-26T14:04:29;100294.05;;;16.93;39.58
33949;BME280;20229;49.856;19.030;2023-03-26T14:09:58;100290.82;;;16.88;39.70
33949;BME280;20229;49.856;19.030;2023-03-26T14:15:22;100301.13;;;16.86;40.07
33949;BME280;20229;49.856;19.030;2023-03-26T14:32:14;100283.23;;;16.59;40.06
33949;BME280;20229;49.856;19.030;2023-03-26T14:43:03;100273.68;;;16.21;40.12
33949;BME280;20229;49.856;19.030;2023-03-26T14:54:15;100258.68;;;15.93;40.39
33949;BME280;20229;49.856;19.030;2023-03-26T15:49:04;100228.17;;;14.98;43.43
33949;BME280;20229;49.856;19.030;2023-03-26T15:54:29;100233.79;;;14.86;43.10
33949;BME280;20229;49.856;19.030;2023-03-26T16:16:57;100205.09;;;14.56;45.59
33949;BME280;20229;49.856;19.030;2023-03-26T16:22:15;100202.27;;;14.45;45.14
33949;BME280;20229;49.856;19.030;2023-03-26T16:27:33;100202.79;;;14.39;45.05
33949;BME280;20229;49.856;19.030;2023-03-26T16:32:52;100203.52;;;14.29;44.57
33949;BME280;20229;49.856;19.030;2023-03-26T16:38:12;100199.02;;;14.17;45.44
33949;BME280;20229;49.856;19.030;2023-03-26T16:43:35;100199.48;;;14.00;46.50
33949;BME280;20229;49.856;19.030;2023-03-26T16:54:28;100197.34;;;13.57;46.63
33949;BME280;20229;49.856;19.030;2023-03-26T17:11:17;100205.16;;;13.13;47.43
33949;BME280;20229;49.856;19.030;2023-03-26T17:16:39;100201.78;;;13.10;47.13
33949;BME280;20229;49.856;19.030;2023-03-26T17:32:57;100215.63;;;12.96;47.79
33949;BME280;20229;49.856;19.030;2023-03-26T17:43:45;100214.56;;;12.85;48.60
33949;BME280;20229;49.856;19.030;2023-03-26T17:49:12;100224.88;;;12.82;49.78
33949;BME280;20229;49.856;19.030;2023-03-26T17:54:39;100217.66;;;12.68;50.14
33949;BME280;20229;49.856;19.030;2023-03-26T17:59:59;100231.05;;;12.60;50.95
33949;BME280;20229;49.856;19.030;2023-03-26T18:05:21;100230.08;;;12.48;52.27
33949;BME280;20229;49.856;19.030;2023-03-26T18:10:51;100230.73;;;12.39;52.87
33949;BME280;20229;49.856;19.030;2023-03-26T18:22:04;100235.87;;;12.18;53.49
33949;BME280;20229;49.856;19.030;2023-03-26T18:27:22;100231.80;;;12.11;53.28
33949;BME280;20229;49.856;19.030;2023-03-26T18:38:04;100241.31;;;11.92;55.88
33949;BME280;20229;49.856;19.030;2023-03-26T18:43:20;100234.64;;;11.84;56.77
33949;BME280;20229;49.856;19.030;2023-03-26T18:48:35;100230.42;;;11.78;58.02
33949;BME280;20229;49.856;19.030;2023-03-26T18:53:51;100227.44;;;11.68;59.38
33949;BME280;20229;49.856;19.030;2023-03-26T18:59:19;100237.24;;;11.58;61.18
33949;BME280;20229;49.856;19.030;2023-03-26T19:04:34;100236.23;;;11.46;62.97
33949;BME280;20229;49.856;19.030;2023-03-26T19:09:51;100225.23;;;11.34;63.50
33949;BME280;20229;49.856;19.030;2023-03-26T19:15:15;100225.29;;;11.19;66.58
33949;BME280;20229;49.856;19.030;2023-03-26T19:20:42;100225.25;;;11.07;67.34
33949;BME280;20229;49.856;19.030;2023-03-26T19:25:54;100216.90;;;10.95;68.32
33949;BME280;20229;49.856;19.030;2023-03-26T19:31:21;100208.50;;;10.84;68.68
33949;BME280;20229;49.856;19.030;2023-03-26T19:42:01;100199.18;;;10.60;71.46
33949;BME280;20229;49.856;19.030;2023-03-26T19:47:19;100178.64;;;10.54;72.98
33949;BME280;20229;49.856;19.030;2023-03-26T19:52:36;100177.47;;;10.44;74.83
33949;BME280;20229;49.856;19.030;2023-03-26T19:57:51;100166.39;;;10.33;74.41
33949;BME280;20229;49.856;19.030;2023-03-26T20:03:06;100159.37;;;10.28;73.38
33949;BME280;20229;49.856;19.030;2023-03-26T20:08:20;100152.60;;;10.20;75.48
33949;BME280;20229;49.856;19.030;2023-03-26T20:13:39;100146.77;;;10.12;76.54
33949;BME280;20229;49.856;19.030;2023-03-26T20:18:54;100140.94;;;10.03;79.03
33949;BME280;20229;49.856;19.030;2023-03-26T20:24:15;100130.60;;;9.94;78.56
33949;BME280;20229;49.856;19.030;2023-03-26T20:29:30;100118.14;;;9.90;79.23
33949;BME280;20229;49.856;19.030;2023-03-26T20:34:45;100105.88;;;9.83;80.89
33949;BME280;20229;49.856;19.030;2023-03-26T20:40:02;100099.04;;;9.76;81.12
33949;BME280;20229;49.856;19.030;2023-03-26T20:45:21;100081.03;;;9.73;80.75
33949;BME280;20229;49.856;19.030;2023-03-26T20:50:37;100074.10;;;9.68;81.36
33949;BME280;20229;49.856;19.030;2023-03-26T20:55:55;100067.89;;;9.66;80.71
33949;BME280;20229;49.856;19.030;2023-03-26T21:01:09;100067.10;;;9.64;82.25
33949;BME280;20229;49.856;19.030;2023-03-26T21:06:23;100066.71;;;9.55;83.69
33949;BME280;20229;49.856;19.030;2023-03-26T21:17:03;100056.48;;;9.45;85.02
33949;BME280;20229;49.856;19.030;2023-03-26T21:33:10;100070.95;;;9.31;84.86
33949;BME280;20229;49.856;19.030;2023-03-26T21:38:24;100054.80;;;9.28;84.68
33949;BME280;20229;49.856;19.030;2023-03-26T21:43:38;100051.49;;;9.23;84.34
33949;BME280;20229;49.856;19.030;2023-03-26T21:48:52;100035.16;;;9.23;84.69
33949;BME280;20229;49.856;19.030;2023-03-26T22:05:07;100032.10;;;9.13;85.36
33949;BME280;20229;49.856;19.030;2023-03-26T22:10:23;100029.39;;;9.13;85.77
33949;BME280;20229;49.856;19.030;2023-03-26T22:15:37;100029.57;;;9.10;85.76
33949;BME280;20229;49.856;19.030;2023-03-26T22:20:51;100017.12;;;9.06;84.53
33949;BME280;20229;49.856;19.030;2023-03-26T22:26:05;100009.25;;;9.01;83.41
33949;BME280;20229;49.856;19.030;2023-03-26T22:31:19;100001.34;;;8.97;86.11
33949;BME280;20229;49.856;19.030;2023-03-26T22:36:35;99989.69;;;8.95;86.56
33949;BME280;20229;49.856;19.030;2023-03-26T22:41:49;99984.50;;;8.90;87.38
33949;BME280;20229;49.856;19.030;2023-03-26T22:47:03;99982.87;;;8.88;87.68
33949;BME280;20229;49.856;19.030;2023-03-26T22:52:17;99968.38;;;8.87;87.59
33949;BME280;20229;49.856;19.030;2023-03-26T22:57:31;99976.73;;;8.84;88.64
33949;BME280;20229;49.856;19.030;2023-03-26T23:02:45;99966.03;;;8.81;88.03
33949;BME280;20229;49.856;19.030;2023-03-26T23:07:59;99970.67;;;8.79;88.33
33949;BME280;20229;49.856;19.030;2023-03-26T23:13:13;99972.45;;;8.80;88.65
33949;BME280;20229;49.856;19.030;2023-03-26T23:18:27;99963.49;;;8.78;88.60
33949;BME280;20229;49.856;19.030;2023-03-26T23:23:41;99954.75;;;8.73;88.64
33949;BME280;20229;49.856;19.030;2023-03-26T23:28:55;99955.70;;;8.72;88.60
33949;BME280;20229;49.856;19.030;2023-03-26T23:34:09;99954.83;;;8.71;88.55
33949;BME280;20229;49.856;19.030;2023-03-26T23:39:28;99951.41;;;8.68;89.29
33949;BME280;20229;49.856;19.030;2023-03-26T23:44:45;99951.41;;;8.68;89.50
33949;BME280;20229;49.856;19.030;2023-03-26T23:50:00;99951.77;;;8.61;89.48
33949;BME280;20229;49.856;19.030;2023-03-26T23:55:16;99949.05;;;8.61;88.86
